createdAt,value
2022-12-31T00:00:21.824Z,9.10
2022-12-31T00:02:49.233Z,9.20
2022-12-31T00:05:16.575Z,9.30
2022-12-31T00:07:43.796Z,9.20
2022-12-31T00:10:11.064Z,9.30
2022-12-31T00:12:38.253Z,9.20
2022-12-31T00:15:05.688Z,9.20
2022-12-31T00:17:32.886Z,9.20
2022-12-31T00:20:00.156Z,9.20
2022-12-31T00:22:27.344Z,9.30
2022-12-31T00:24:54.610Z,9.30
2022-12-31T00:27:22.456Z,9.20
2022-12-31T00:29:49.658Z,9.20
2022-12-31T00:32:16.882Z,9.20
2022-12-31T00:34:44.132Z,9.20
2022-12-31T00:37:11.402Z,9.10
2022-12-31T00:39:38.564Z,9.10
2022-12-31T00:42:05.788Z,9.00
2022-12-31T00:44:33.044Z,9.00
2022-12-31T00:47:00.246Z,8.90
2022-12-31T00:49:27.493Z,8.90
2022-12-31T00:51:54.861Z,8.90
2022-12-31T00:54:22.167Z,8.70
2022-12-31T00:56:49.390Z,8.80
2022-12-31T00:59:16.701Z,8.90
2022-12-31T01:01:44.105Z,8.90
2022-12-31T01:04:13.848Z,8.90
2022-12-31T01:06:41.790Z,8.90
2022-12-31T01:09:09.424Z,8.90
2022-12-31T01:11:36.922Z,8.90
2022-12-31T01:14:04.166Z,8.80
2022-12-31T01:16:42.281Z,8.80
2022-12-31T01:19:11.267Z,8.70
2022-12-31T01:21:39.603Z,8.70
2022-12-31T01:24:07.354Z,8.60
2022-12-31T01:26:34.670Z,8.60
2022-12-31T01:29:02.121Z,8.80
2022-12-31T01:31:30.144Z,8.80
2022-12-31T01:33:57.850Z,8.80
2022-12-31T01:36:26.785Z,8.80
2022-12-31T01:38:55.348Z,8.50
2022-12-31T01:41:24.126Z,8.60
2022-12-31T01:44:14.402Z,8.70
2022-12-31T01:46:44.427Z,8.70
2022-12-31T01:49:11.662Z,8.70
2022-12-31T01:51:40.592Z,8.80
2022-12-31T01:54:09.248Z,8.70
2022-12-31T01:56:40.703Z,8.70
2022-12-31T01:59:10.092Z,8.70
2022-12-31T02:01:38.076Z,8.50
2022-12-31T02:04:07.864Z,8.60
2022-12-31T02:06:38.082Z,8.60
2022-12-31T02:09:05.255Z,8.70
2022-12-31T02:11:36.394Z,8.80
2022-12-31T02:14:15.029Z,8.70
2022-12-31T02:17:00.607Z,8.90
2022-12-31T02:19:43.101Z,8.80
2022-12-31T02:22:23.846Z,8.90
2022-12-31T02:25:10.132Z,8.90
2022-12-31T02:27:40.157Z,8.90
2022-12-31T02:30:20.516Z,8.90
2022-12-31T02:33:02.434Z,8.90
2022-12-31T02:36:02.222Z,8.70
2022-12-31T02:38:33.988Z,8.80
2022-12-31T02:41:01.243Z,8.80
2022-12-31T02:43:28.681Z,8.90
2022-12-31T02:45:55.912Z,8.90
2022-12-31T02:48:28.718Z,8.80
2022-12-31T02:51:13.705Z,8.80
2022-12-31T02:53:44.054Z,8.80
2022-12-31T02:56:13.764Z,8.70
2022-12-31T02:59:18.900Z,8.70
2022-12-31T03:02:07.040Z,8.70
2022-12-31T03:04:35.808Z,8.60
2022-12-31T03:07:07.990Z,8.60
2022-12-31T03:09:36.005Z,8.70
2022-12-31T03:12:22.952Z,8.70
2022-12-31T03:14:50.470Z,8.60
2022-12-31T03:17:17.903Z,8.70
2022-12-31T03:20:03.645Z,8.80
2022-12-31T03:22:31.234Z,8.80
2022-12-31T03:25:24.077Z,8.60
2022-12-31T03:27:53.813Z,8.60
2022-12-31T03:30:22.033Z,8.70
2022-12-31T03:32:49.772Z,8.70
2022-12-31T03:35:19.268Z,8.70
2022-12-31T03:37:48.023Z,8.60
2022-12-31T03:40:15.883Z,8.60
2022-12-31T03:42:43.153Z,8.70
2022-12-31T03:45:10.951Z,8.80
2022-12-31T03:47:38.517Z,8.90
2022-12-31T03:50:06.563Z,8.90
2022-12-31T03:52:33.804Z,8.80
2022-12-31T03:55:02.292Z,8.80
2022-12-31T03:57:29.584Z,9.00
2022-12-31T03:59:56.784Z,8.80
2022-12-31T04:02:28.813Z,8.90
2022-12-31T04:04:56.789Z,8.90
2022-12-31T04:07:24.314Z,8.80
2022-12-31T04:09:51.612Z,8.90
2022-12-31T04:12:18.866Z,9.00
2022-12-31T04:14:46.104Z,8.90
2022-12-31T04:17:13.349Z,8.90
2022-12-31T04:19:40.567Z,8.90
2022-12-31T04:22:07.816Z,8.70
2022-12-31T04:24:35.027Z,8.80
2022-12-31T04:27:07.452Z,8.80
2022-12-31T04:29:36.079Z,8.80
2022-12-31T04:32:04.228Z,8.80
2022-12-31T04:34:31.612Z,8.90
2022-12-31T04:36:59.127Z,8.90
2022-12-31T04:39:26.707Z,8.90
2022-12-31T04:41:54.257Z,9.00
2022-12-31T04:44:21.751Z,9.00
2022-12-31T04:46:49.052Z,8.90
2022-12-31T04:49:16.445Z,8.90
2022-12-31T04:51:43.638Z,8.90
2022-12-31T04:54:11.462Z,8.90
2022-12-31T04:56:38.732Z,8.80
2022-12-31T04:59:07.228Z,8.80
2022-12-31T05:01:34.524Z,8.80
2022-12-31T05:04:01.906Z,9.00
2022-12-31T05:06:29.207Z,8.90
2022-12-31T05:08:56.531Z,8.90
2022-12-31T05:11:23.742Z,8.80
2022-12-31T05:13:51.026Z,8.90
2022-12-31T05:16:18.368Z,8.90
2022-12-31T05:18:45.694Z,8.90
2022-12-31T05:21:17.923Z,8.90
2022-12-31T05:23:45.248Z,8.90
2022-12-31T05:26:12.406Z,8.90
2022-12-31T05:28:40.507Z,8.90
2022-12-31T05:31:07.765Z,9.00
2022-12-31T05:33:35.110Z,8.90
2022-12-31T05:36:02.553Z,8.90
2022-12-31T05:38:30.476Z,8.80
2022-12-31T05:41:01.458Z,8.80
2022-12-31T05:43:28.970Z,8.80
2022-12-31T05:45:56.342Z,8.80
2022-12-31T05:48:23.718Z,8.80
2022-12-31T05:50:51.064Z,8.90
2022-12-31T05:53:18.686Z,8.90
2022-12-31T05:55:47.187Z,8.90
2022-12-31T05:58:17.243Z,8.90
2022-12-31T06:00:44.811Z,8.90
2022-12-31T06:03:12.120Z,8.90
2022-12-31T06:05:40.223Z,8.90
2022-12-31T06:08:07.491Z,9.00
2022-12-31T06:10:34.705Z,9.00
2022-12-31T06:13:01.958Z,9.00
2022-12-31T06:15:29.236Z,9.10
2022-12-31T06:17:56.455Z,9.00
2022-12-31T06:20:23.751Z,9.00
2022-12-31T06:22:50.995Z,9.00
2022-12-31T06:25:18.191Z,9.00
2022-12-31T06:27:45.375Z,9.10
2022-12-31T06:30:12.919Z,9.10
2022-12-31T06:32:40.872Z,9.00
2022-12-31T06:35:08.463Z,9.00
2022-12-31T06:37:35.647Z,9.10
2022-12-31T06:40:04.372Z,9.00
2022-12-31T06:42:31.649Z,9.00
2022-12-31T06:44:59.062Z,9.00
2022-12-31T06:47:26.441Z,9.10
2022-12-31T06:49:53.736Z,9.10
2022-12-31T06:52:21.340Z,9.00
2022-12-31T06:54:48.741Z,9.00
2022-12-31T06:57:16.201Z,9.10
2022-12-31T06:59:44.804Z,9.30
2022-12-31T07:02:17.915Z,9.20
2022-12-31T07:04:56.911Z,9.10
2022-12-31T07:07:24.111Z,9.10
2022-12-31T07:10:11.535Z,9.00
2022-12-31T07:12:53.186Z,9.10
2022-12-31T07:15:40.651Z,9.20
2022-12-31T07:18:08.018Z,9.30
2022-12-31T07:20:35.450Z,9.10
2022-12-31T07:23:02.872Z,9.00
2022-12-31T07:25:30.296Z,9.20
2022-12-31T07:28:00.579Z,9.30
2022-12-31T07:30:46.487Z,9.10
2022-12-31T07:33:21.872Z,9.20
2022-12-31T07:36:01.312Z,9.30
2022-12-31T07:38:47.657Z,9.40
2022-12-31T07:41:33.697Z,9.50
2022-12-31T07:44:06.850Z,9.30
2022-12-31T07:46:40.925Z,9.40
2022-12-31T07:49:11.902Z,9.40
2022-12-31T07:51:39.490Z,9.40
2022-12-31T07:54:13.424Z,9.50
2022-12-31T07:56:41.962Z,9.50
2022-12-31T07:59:23.961Z,9.60
2022-12-31T08:01:56.577Z,9.70
2022-12-31T08:04:44.240Z,9.50
2022-12-31T08:07:19.010Z,9.40
2022-12-31T08:09:58.734Z,9.60
2022-12-31T08:12:27.936Z,9.60
2022-12-31T08:14:55.266Z,9.70
2022-12-31T08:17:22.738Z,9.70
2022-12-31T08:19:50.238Z,9.70
2022-12-31T08:22:36.140Z,9.80
2022-12-31T08:25:12.459Z,9.80
2022-12-31T08:27:45.490Z,9.80
2022-12-31T08:30:14.836Z,9.80
2022-12-31T08:32:51.071Z,9.80
2022-12-31T08:35:22.121Z,9.90
2022-12-31T08:38:07.784Z,9.90
2022-12-31T08:40:34.973Z,9.90
2022-12-31T08:43:14.075Z,9.80
2022-12-31T08:45:51.903Z,9.70
2022-12-31T08:48:22.253Z,9.70
2022-12-31T08:50:49.586Z,9.80
2022-12-31T08:53:16.905Z,9.70
2022-12-31T08:55:44.805Z,9.70
2022-12-31T08:58:12.020Z,9.90
2022-12-31T09:00:40.676Z,9.90
2022-12-31T09:03:26.376Z,9.90
2022-12-31T09:05:53.795Z,9.90
2022-12-31T09:08:24.247Z,9.80
2022-12-31T09:10:54.588Z,9.90
2022-12-31T09:13:25.543Z,9.80
2022-12-31T09:15:53.034Z,9.80
2022-12-31T09:18:20.402Z,9.70
2022-12-31T09:20:47.735Z,9.90
2022-12-31T09:23:15.199Z,9.90
2022-12-31T09:25:45.670Z,10.00
2022-12-31T09:28:18.066Z,10.00
2022-12-31T09:31:11.617Z,10.10
2022-12-31T09:33:38.881Z,9.90
2022-12-31T09:36:07.416Z,10.10
2022-12-31T09:38:43.940Z,10.00
2022-12-31T09:41:16.067Z,10.20
2022-12-31T09:43:43.335Z,10.20
2022-12-31T09:46:10.634Z,10.10
2022-12-31T09:48:50.081Z,10.20
2022-12-31T09:51:37.965Z,10.40
2022-12-31T09:54:20.484Z,10.20
2022-12-31T09:56:55.568Z,10.10
2022-12-31T09:59:31.814Z,10.10
2022-12-31T10:02:20.339Z,10.20
2022-12-31T10:05:06.304Z,10.30
2022-12-31T10:07:36.470Z,10.30
2022-12-31T10:10:07.563Z,10.50
2022-12-31T10:12:47.241Z,10.40
2022-12-31T10:15:17.488Z,10.50
2022-12-31T10:17:53.614Z,10.60
2022-12-31T10:20:23.773Z,10.60
2022-12-31T10:22:51.315Z,10.50
2022-12-31T10:25:21.365Z,10.50
2022-12-31T10:28:15.163Z,10.40
2022-12-31T10:30:48.103Z,10.30
2022-12-31T10:33:54.091Z,10.50
2022-12-31T10:36:30.471Z,10.50
2022-12-31T10:39:00.741Z,10.50
2022-12-31T10:41:46.400Z,10.70
2022-12-31T10:44:33.872Z,10.80
2022-12-31T10:47:19.711Z,10.80
2022-12-31T10:49:52.879Z,11.00
2022-12-31T10:52:35.632Z,11.00
2022-12-31T10:55:24.896Z,11.10
2022-12-31T10:58:12.337Z,11.00
2022-12-31T11:00:53.437Z,11.10
2022-12-31T11:03:32.703Z,11.20
2022-12-31T11:06:00.072Z,11.40
2022-12-31T11:08:50.329Z,11.30
2022-12-31T11:11:23.635Z,11.40
2022-12-31T11:14:09.512Z,11.40
2022-12-31T11:16:55.329Z,11.40
2022-12-31T11:19:33.631Z,11.60
2022-12-31T11:22:11.909Z,11.60
2022-12-31T11:25:05.758Z,11.60
2022-12-31T11:27:32.966Z,11.50
2022-12-31T11:30:00.202Z,11.40
2022-12-31T11:32:50.892Z,11.50
2022-12-31T11:35:22.255Z,11.60
2022-12-31T11:37:51.034Z,11.80
2022-12-31T11:40:54.286Z,11.80
2022-12-31T11:43:26.054Z,11.70
2022-12-31T11:45:59.518Z,11.70
2022-12-31T11:48:45.560Z,11.60
2022-12-31T11:51:26.978Z,11.60
2022-12-31T11:54:12.400Z,11.70
2022-12-31T11:56:46.074Z,11.60
2022-12-31T11:59:19.426Z,11.60
2022-12-31T12:02:00.804Z,11.70
2022-12-31T12:04:28.146Z,11.80
2022-12-31T12:06:55.563Z,11.70
2022-12-31T12:09:28.332Z,11.80
2022-12-31T12:12:00.385Z,11.80
2022-12-31T12:14:36.010Z,11.90
2022-12-31T12:17:06.683Z,12.10
2022-12-31T12:19:34.969Z,12.10
2022-12-31T12:22:19.927Z,12.20
2022-12-31T12:24:59.028Z,12.20
2022-12-31T12:27:30.850Z,12.20
2022-12-31T12:29:58.106Z,12.30
2022-12-31T12:32:27.425Z,12.30
2022-12-31T12:34:54.777Z,12.30
2022-12-31T12:37:25.146Z,12.40
2022-12-31T12:39:56.573Z,12.40
2022-12-31T12:42:23.847Z,12.60
2022-12-31T12:45:00.711Z,12.70
2022-12-31T12:47:28.431Z,12.50
2022-12-31T12:49:55.756Z,12.40
2022-12-31T12:52:32.249Z,12.40
2022-12-31T12:55:05.234Z,12.50
2022-12-31T12:57:50.563Z,12.40
2022-12-31T13:00:29.654Z,12.30
2022-12-31T13:03:06.102Z,12.40
2022-12-31T13:05:36.127Z,12.40
2022-12-31T13:08:11.669Z,12.40
2022-12-31T13:10:48.943Z,12.60
2022-12-31T13:13:24.152Z,12.40
2022-12-31T13:16:10.706Z,12.60
2022-12-31T13:18:43.829Z,12.70
2022-12-31T13:21:16.895Z,12.80
2022-12-31T13:23:54.705Z,12.80
2022-12-31T13:26:24.971Z,12.60
2022-12-31T13:28:52.717Z,12.70
2022-12-31T13:31:26.409Z,12.60
2022-12-31T13:33:56.463Z,12.70
2022-12-31T13:36:25.135Z,12.50
2022-12-31T13:38:53.419Z,12.60
2022-12-31T13:41:29.213Z,12.70
2022-12-31T13:44:02.381Z,12.50
2022-12-31T13:46:45.058Z,12.60
2022-12-31T13:49:21.215Z,12.60
2022-12-31T13:51:53.441Z,12.40
2022-12-31T13:54:39.604Z,12.40
2022-12-31T13:57:19.193Z,12.30
2022-12-31T13:59:49.238Z,12.50
2022-12-31T14:02:29.639Z,12.50
2022-12-31T14:05:09.357Z,12.50
2022-12-31T14:07:45.286Z,12.30
2022-12-31T14:10:13.956Z,12.20
2022-12-31T14:12:52.572Z,12.20
2022-12-31T14:15:36.347Z,12.20
2022-12-31T14:18:07.358Z,12.20
2022-12-31T14:20:53.360Z,12.10
2022-12-31T14:23:39.482Z,12.10
2022-12-31T14:26:18.769Z,12.00
2022-12-31T14:28:53.460Z,12.00
2022-12-31T14:31:30.847Z,12.00
2022-12-31T14:34:02.307Z,11.90
2022-12-31T14:36:38.371Z,11.90
2022-12-31T14:39:06.201Z,11.80
2022-12-31T14:41:53.744Z,11.80
2022-12-31T14:44:24.080Z,11.80
2022-12-31T14:46:54.051Z,11.80
2022-12-31T14:49:28.387Z,11.70
2022-12-31T14:51:55.576Z,11.70
2022-12-31T14:54:34.866Z,11.70
2022-12-31T14:57:17.084Z,11.70
2022-12-31T14:59:57.816Z,11.70
2022-12-31T15:02:29.319Z,11.70
2022-12-31T15:05:04.889Z,11.80
2022-12-31T15:07:55.596Z,11.70
2022-12-31T15:10:22.819Z,11.70
2022-12-31T15:13:06.373Z,11.70
2022-12-31T15:15:40.861Z,11.70
2022-12-31T15:18:26.474Z,11.60
2022-12-31T15:21:03.249Z,11.60
2022-12-31T15:23:40.303Z,11.60
2022-12-31T15:26:19.291Z,11.60
2022-12-31T15:28:55.970Z,11.60
2022-12-31T15:31:23.376Z,11.50
2022-12-31T15:33:53.729Z,11.50
2022-12-31T15:36:22.426Z,11.50
2022-12-31T15:38:50.053Z,11.50
2022-12-31T15:41:20.076Z,11.40
2022-12-31T15:43:50.729Z,11.40
2022-12-31T15:46:20.049Z,11.30
2022-12-31T15:48:52.669Z,11.30
2022-12-31T15:51:28.007Z,11.20
2022-12-31T15:53:56.939Z,11.30
2022-12-31T15:56:39.371Z,11.30
2022-12-31T15:59:12.303Z,11.20
2022-12-31T16:01:41.341Z,11.20
2022-12-31T16:04:16.869Z,11.20
2022-12-31T16:06:50.475Z,11.10
2022-12-31T16:09:26.721Z,11.00
2022-12-31T16:11:54.905Z,11.00
2022-12-31T16:14:23.868Z,11.00
2022-12-31T16:16:55.537Z,11.10
2022-12-31T16:19:32.259Z,11.10
2022-12-31T16:22:02.231Z,11.10
2022-12-31T16:24:35.224Z,11.10
2022-12-31T16:27:09.276Z,11.10
2022-12-31T16:29:37.687Z,11.00
2022-12-31T16:32:05.091Z,11.00
2022-12-31T16:34:36.630Z,11.00
2022-12-31T16:37:05.264Z,11.00
2022-12-31T16:39:32.523Z,11.00
2022-12-31T16:42:19.929Z,11.20
2022-12-31T16:44:48.277Z,11.20
2022-12-31T16:47:17.561Z,11.00
2022-12-31T16:49:46.390Z,10.90
2022-12-31T16:52:36.826Z,10.80
2022-12-31T16:55:15.515Z,10.90
2022-12-31T16:57:43.941Z,10.90
2022-12-31T17:00:15.850Z,10.90
2022-12-31T17:02:44.663Z,10.90
2022-12-31T17:05:22.622Z,10.90
2022-12-31T17:07:49.947Z,10.90
2022-12-31T17:10:20.705Z,10.90
2022-12-31T17:13:26.668Z,11.00
2022-12-31T17:15:41.217Z,11.00
2022-12-31T17:18:12.961Z,11.00
2022-12-31T17:20:40.283Z,11.10
2022-12-31T17:23:08.670Z,11.10
2022-12-31T17:25:39.091Z,11.20
2022-12-31T17:28:23.290Z,11.30
2022-12-31T17:30:50.839Z,11.30
2022-12-31T17:33:18.105Z,11.30
2022-12-31T17:35:45.828Z,11.40
2022-12-31T17:38:22.180Z,11.40
2022-12-31T17:40:53.514Z,11.40
2022-12-31T17:43:22.355Z,11.40
2022-12-31T17:45:53.392Z,11.40
2022-12-31T17:48:23.143Z,11.30
2022-12-31T17:50:54.455Z,11.20
2022-12-31T17:53:21.653Z,11.30
2022-12-31T17:55:50.905Z,11.20
2022-12-31T17:58:18.197Z,11.10
2022-12-31T18:00:45.582Z,11.10
2022-12-31T18:03:12.899Z,11.30
2022-12-31T18:05:40.189Z,11.30
2022-12-31T18:08:07.489Z,11.40
2022-12-31T18:10:36.520Z,11.50
2022-12-31T18:13:05.105Z,11.50
2022-12-31T18:15:32.453Z,11.50
2022-12-31T18:17:59.655Z,11.50
2022-12-31T18:20:27.106Z,11.50
2022-12-31T18:22:55.805Z,11.50
2022-12-31T18:25:23.743Z,11.40
2022-12-31T18:27:51.445Z,11.40
2022-12-31T18:30:18.996Z,11.30
2022-12-31T18:32:46.751Z,11.30
2022-12-31T18:35:40.636Z,11.10
2022-12-31T18:38:15.257Z,11.10
2022-12-31T18:40:46.683Z,11.20
2022-12-31T18:43:17.679Z,11.10
2022-12-31T18:45:45.714Z,11.30
2022-12-31T18:48:13.367Z,11.30
2022-12-31T18:50:40.901Z,11.20
2022-12-31T18:53:11.000Z,11.00
2022-12-31T18:55:40.379Z,11.10
2022-12-31T18:58:08.253Z,11.20
2022-12-31T19:00:35.923Z,11.10
2022-12-31T19:03:05.522Z,11.10
2022-12-31T19:05:33.946Z,11.20
2022-12-31T19:08:01.448Z,11.20
2022-12-31T19:10:28.740Z,11.10
2022-12-31T19:12:56.077Z,11.00
2022-12-31T19:15:23.332Z,11.00
2022-12-31T19:17:50.583Z,10.90
2022-12-31T19:20:18.011Z,10.90
2022-12-31T19:22:45.203Z,10.90
2022-12-31T19:25:21.869Z,11.00
2022-12-31T19:27:49.522Z,11.00
2022-12-31T19:30:17.944Z,11.10
2022-12-31T19:32:45.497Z,10.90
2022-12-31T19:35:13.361Z,10.80
2022-12-31T19:37:41.152Z,10.80
2022-12-31T19:40:13.128Z,10.70
2022-12-31T19:42:40.717Z,10.50
2022-12-31T19:45:12.837Z,10.60
2022-12-31T19:47:40.115Z,10.60
2022-12-31T19:50:07.617Z,10.80
2022-12-31T19:52:34.774Z,10.80
2022-12-31T19:55:02.092Z,10.80
2022-12-31T19:57:29.325Z,10.80
2022-12-31T19:59:56.653Z,10.70
2022-12-31T20:02:23.965Z,10.60
2022-12-31T20:04:51.332Z,10.70
2022-12-31T20:07:22.209Z,10.70
2022-12-31T20:09:54.173Z,10.70
2022-12-31T20:12:21.445Z,10.60
2022-12-31T20:14:48.685Z,10.70
2022-12-31T20:17:15.905Z,10.70
2022-12-31T20:19:43.183Z,10.60
2022-12-31T20:22:10.525Z,10.60
2022-12-31T20:24:37.857Z,10.60
2022-12-31T20:27:05.402Z,10.50
2022-12-31T20:29:32.741Z,10.40
2022-12-31T20:32:00.066Z,10.60
2022-12-31T20:34:28.036Z,10.60
2022-12-31T20:36:55.624Z,10.70
2022-12-31T20:39:22.852Z,10.70
2022-12-31T20:41:50.097Z,10.70
2022-12-31T20:44:17.332Z,10.60
2022-12-31T20:46:44.615Z,10.70
2022-12-31T20:49:11.932Z,10.70
2022-12-31T20:51:39.115Z,10.60
2022-12-31T20:54:07.872Z,10.60
2022-12-31T20:56:36.443Z,10.60
2022-12-31T20:59:04.569Z,10.70
2022-12-31T21:01:48.075Z,10.70
2022-12-31T21:04:19.298Z,10.60
2022-12-31T21:06:48.039Z,10.60
2022-12-31T21:09:15.258Z,10.60
2022-12-31T21:12:01.080Z,10.60
2022-12-31T21:14:28.362Z,10.60
2022-12-31T21:16:55.642Z,10.60
2022-12-31T21:19:22.867Z,10.70
2022-12-31T21:21:50.055Z,10.70
2022-12-31T21:24:23.267Z,10.80
2022-12-31T21:26:51.662Z,10.90
2022-12-31T21:29:18.874Z,11.00
2022-12-31T21:31:46.183Z,11.00
2022-12-31T21:34:13.459Z,11.10
2022-12-31T21:36:40.763Z,11.20
2022-12-31T21:39:08.012Z,11.10
2022-12-31T21:41:53.473Z,11.10
2022-12-31T21:44:24.363Z,11.10
2022-12-31T21:47:34.876Z,11.10
2022-12-31T21:50:04.797Z,11.10
2022-12-31T21:52:34.062Z,11.00
2022-12-31T21:55:20.953Z,10.80
2022-12-31T21:58:23.959Z,10.90
2022-12-31T22:00:55.060Z,10.80
2022-12-31T22:03:26.911Z,10.70
2022-12-31T22:05:54.218Z,10.60
2022-12-31T22:08:22.133Z,10.60
2022-12-31T22:10:52.762Z,10.60
2022-12-31T22:13:20.715Z,10.50
2022-12-31T22:15:49.106Z,10.50
2022-12-31T22:18:17.875Z,10.60
2022-12-31T22:20:45.169Z,10.70
2022-12-31T22:23:12.604Z,10.70
2022-12-31T22:25:39.895Z,10.70
2022-12-31T22:30:55.043Z,10.70
2022-12-31T22:33:22.450Z,10.80
2022-12-31T22:35:58.830Z,10.90
2022-12-31T22:38:26.547Z,10.80
2022-12-31T22:41:04.227Z,10.80
2022-12-31T22:43:35.944Z,10.70
2022-12-31T22:46:10.759Z,10.80
2022-12-31T22:48:38.139Z,10.80
2022-12-31T22:51:06.055Z,10.80
2022-12-31T22:53:33.449Z,10.80
2022-12-31T22:56:00.750Z,10.80
2022-12-31T22:58:28.119Z,10.80
2022-12-31T23:00:55.389Z,10.70
2022-12-31T23:03:22.780Z,10.50
2022-12-31T23:05:51.761Z,10.50
2022-12-31T23:08:23.156Z,10.70
2022-12-31T23:11:05.359Z,10.60
2022-12-31T23:13:58.335Z,10.50
2022-12-31T23:16:45.400Z,10.50
2022-12-31T23:19:31.668Z,10.40
2022-12-31T23:22:17.491Z,10.30
2022-12-31T23:24:44.641Z,10.30
2022-12-31T23:27:12.347Z,10.20
2022-12-31T23:29:46.186Z,10.30
2022-12-31T23:32:17.844Z,10.20
2022-12-31T23:34:46.013Z,10.30
2022-12-31T23:37:13.828Z,10.30
2022-12-31T23:39:41.520Z,10.40
2022-12-31T23:42:08.896Z,10.30
2022-12-31T23:44:36.295Z,10.30
2022-12-31T23:47:03.676Z,10.20
2022-12-31T23:49:30.914Z,10.20
2022-12-31T23:51:58.259Z,10.10
2022-12-31T23:54:25.458Z,10.10
2022-12-31T23:56:52.876Z,10.10
2022-12-31T23:59:20.221Z,10.10
